createdAt,value
2023-01-07T00:01:39.824Z,75.16
2023-01-07T00:04:11.581Z,74.58
2023-01-07T00:06:41.810Z,74.76
2023-01-07T00:09:16.865Z,75.04
2023-01-07T00:11:45.776Z,74.38
2023-01-07T00:14:14.639Z,75.16
2023-01-07T00:16:43.606Z,75.48
2023-01-07T00:19:16.137Z,75.48
2023-01-07T00:21:44.458Z,75.15
2023-01-07T00:24:12.935Z,74.73
2023-01-07T00:26:41.647Z,74.89
2023-01-07T00:29:09.933Z,75.81
2023-01-07T00:31:43.052Z,76.14
2023-01-07T00:34:11.636Z,75.20
2023-01-07T00:36:45.192Z,74.89
2023-01-07T00:39:17.682Z,74.65
2023-01-07T00:42:05.759Z,75.35
2023-01-07T00:44:34.324Z,75.85
2023-01-07T00:47:02.807Z,75.31
2023-01-07T00:49:31.273Z,75.87
2023-01-07T00:52:00.569Z,76.42
2023-01-07T00:54:29.329Z,76.23
2023-01-07T00:56:57.537Z,76.18
2023-01-07T00:59:25.676Z,76.20
2023-01-07T01:01:53.836Z,76.87
2023-01-07T01:04:22.000Z,77.30
2023-01-07T01:06:50.173Z,77.25
2023-01-07T01:09:20.811Z,76.99
2023-01-07T01:11:49.011Z,77.25
2023-01-07T01:14:17.052Z,77.03
2023-01-07T01:16:48.003Z,76.66
2023-01-07T01:19:16.532Z,77.31
2023-01-07T01:21:44.594Z,78.12
2023-01-07T01:24:12.649Z,77.66
2023-01-07T01:26:40.752Z,77.31
2023-01-07T01:29:08.848Z,78.18
2023-01-07T01:31:37.064Z,77.97
2023-01-07T01:34:06.063Z,77.64
2023-01-07T01:36:35.624Z,77.07
2023-01-07T01:39:05.101Z,77.89
2023-01-07T01:41:35.784Z,78.60
2023-01-07T01:44:41.845Z,77.61
2023-01-07T01:47:40.840Z,77.58
2023-01-07T01:50:17.928Z,77.96
2023-01-07T01:52:58.350Z,78.18
2023-01-07T01:55:32.259Z,78.67
2023-01-07T01:58:06.231Z,78.09
2023-01-07T02:00:35.823Z,77.92
2023-01-07T02:03:07.525Z,78.45
2023-01-07T02:05:40.613Z,78.22
2023-01-07T02:08:09.664Z,78.46
2023-01-07T02:10:39.101Z,77.86
2023-01-07T02:13:45.397Z,77.91
2023-01-07T02:16:18.494Z,78.28
2023-01-07T02:19:01.748Z,78.70
2023-01-07T02:21:56.661Z,78.70
2023-01-07T02:24:58.005Z,78.91
2023-01-07T02:28:05.361Z,79.14
2023-01-07T02:30:48.211Z,79.86
2023-01-07T02:33:38.263Z,80.78
2023-01-07T02:36:44.182Z,80.02
2023-01-07T02:39:18.082Z,80.00
2023-01-07T02:41:58.804Z,80.17
2023-01-07T02:45:02.527Z,80.28
2023-01-07T02:47:42.910Z,80.20
2023-01-07T02:50:11.086Z,80.01
2023-01-07T02:52:39.102Z,79.75
2023-01-07T02:55:30.529Z,79.67
2023-01-07T02:58:41.810Z,80.01
2023-01-07T03:01:16.050Z,79.46
2023-01-07T03:03:52.480Z,79.40
2023-01-07T03:06:23.770Z,79.94
2023-01-07T03:09:19.895Z,79.43
2023-01-07T03:11:53.499Z,80.11
2023-01-07T03:14:31.393Z,80.20
2023-01-07T03:17:05.041Z,80.97
2023-01-07T03:19:38.748Z,80.61
2023-01-07T03:22:09.896Z,80.56
2023-01-07T03:24:38.703Z,81.05
2023-01-07T03:27:07.571Z,81.18
2023-01-07T03:29:37.039Z,81.25
2023-01-07T03:32:18.135Z,80.48
2023-01-07T03:34:46.405Z,81.02
2023-01-07T03:37:20.196Z,80.91
2023-01-07T03:39:49.901Z,81.20
2023-01-07T03:42:41.439Z,80.79
2023-01-07T03:45:22.931Z,80.58
2023-01-07T03:47:54.535Z,80.99
2023-01-07T03:50:25.803Z,81.45
2023-01-07T03:52:54.081Z,81.46
2023-01-07T03:55:22.648Z,81.55
2023-01-07T03:57:52.068Z,81.42
2023-01-07T04:00:20.316Z,80.51
2023-01-07T04:02:54.585Z,82.12
2023-01-07T04:05:26.071Z,82.37
2023-01-07T04:07:54.178Z,81.42
2023-01-07T04:10:23.037Z,81.22
2023-01-07T04:12:53.129Z,81.47
2023-01-07T04:15:21.371Z,81.44
2023-01-07T04:17:49.447Z,80.61
2023-01-07T04:20:17.891Z,80.89
2023-01-07T04:22:46.109Z,81.05
2023-01-07T04:25:14.597Z,81.81
2023-01-07T04:27:42.967Z,81.18
2023-01-07T04:30:12.452Z,81.80
2023-01-07T04:32:40.595Z,81.79
2023-01-07T04:35:09.372Z,82.61
2023-01-07T04:37:38.994Z,83.18
2023-01-07T04:40:08.998Z,82.84
2023-01-07T04:42:37.638Z,82.56
2023-01-07T04:45:08.791Z,81.91
2023-01-07T04:47:37.609Z,81.38
2023-01-07T04:50:06.337Z,81.86
2023-01-07T04:52:36.871Z,81.74
2023-01-07T04:55:06.284Z,81.91
2023-01-07T04:57:34.423Z,81.86
2023-01-07T05:00:02.655Z,82.30
2023-01-07T05:02:32.045Z,82.46
2023-01-07T05:05:00.438Z,82.41
2023-01-07T05:07:28.786Z,82.27
2023-01-07T05:09:57.336Z,82.25
2023-01-07T05:12:25.624Z,82.96
2023-01-07T05:14:55.907Z,83.31
2023-01-07T05:17:24.094Z,82.46
2023-01-07T05:19:53.219Z,82.41
2023-01-07T05:22:21.407Z,82.61
2023-01-07T05:24:49.976Z,82.17
2023-01-07T05:27:18.341Z,82.52
2023-01-07T05:29:46.483Z,82.22
2023-01-07T05:32:14.576Z,81.71
2023-01-07T05:34:43.070Z,81.75
2023-01-07T05:37:11.124Z,81.61
2023-01-07T05:39:40.136Z,81.52
2023-01-07T05:42:08.640Z,82.30
2023-01-07T05:44:36.775Z,82.72
2023-01-07T05:47:04.945Z,82.93
2023-01-07T05:49:33.159Z,82.91
2023-01-07T05:52:02.535Z,82.55
2023-01-07T05:54:30.591Z,82.15
2023-01-07T05:56:58.744Z,81.80
2023-01-07T05:59:27.205Z,82.74
2023-01-07T06:01:57.615Z,83.06
2023-01-07T06:04:25.790Z,82.62
2023-01-07T06:06:54.303Z,82.66
2023-01-07T06:09:22.773Z,82.42
2023-01-07T06:11:54.488Z,82.12
2023-01-07T06:14:23.399Z,82.64
2023-01-07T06:16:51.682Z,83.05
2023-01-07T06:19:23.185Z,82.89
2023-01-07T06:21:51.366Z,82.57
2023-01-07T06:24:21.010Z,82.62
2023-01-07T06:26:50.404Z,82.48
2023-01-07T06:29:18.483Z,82.53
2023-01-07T06:31:46.606Z,82.24
2023-01-07T06:34:14.635Z,81.43
2023-01-07T06:36:44.316Z,79.80
2023-01-07T06:39:12.853Z,78.14
2023-01-07T06:41:41.189Z,76.18
2023-01-07T06:44:09.463Z,74.76
2023-01-07T06:46:37.720Z,71.18
2023-01-07T06:49:05.972Z,67.08
2023-01-07T06:51:36.477Z,65.14
2023-01-07T06:54:04.835Z,61.94
2023-01-07T06:56:33.115Z,60.62
2023-01-07T06:59:02.205Z,57.70
2023-01-07T07:01:30.410Z,58.34
2023-01-07T07:03:58.682Z,55.99
2023-01-07T07:06:28.332Z,55.96
2023-01-07T07:08:56.459Z,56.48
2023-01-07T07:11:24.616Z,53.15
2023-01-07T07:13:52.790Z,50.66
2023-01-07T07:16:22.766Z,53.13
2023-01-07T07:18:53.282Z,49.91
2023-01-07T07:21:21.617Z,50.30
2023-01-07T07:23:49.754Z,52.27
2023-01-07T07:26:17.998Z,51.13
2023-01-07T07:28:47.769Z,51.46
2023-01-07T07:31:16.086Z,51.63
2023-01-07T07:33:44.236Z,51.38
2023-01-07T07:36:12.394Z,51.14
2023-01-07T07:38:40.532Z,51.27
2023-01-07T07:41:08.805Z,52.30
2023-01-07T07:43:38.027Z,52.09
2023-01-07T07:46:09.617Z,49.91
2023-01-07T07:48:40.873Z,50.07
2023-01-07T07:51:08.946Z,49.79
2023-01-07T07:53:37.036Z,49.97
2023-01-07T07:56:08.520Z,50.06
2023-01-07T07:58:36.763Z,50.55
2023-01-07T08:01:06.195Z,51.41
2023-01-07T08:03:34.485Z,51.99
2023-01-07T08:06:06.483Z,52.79
2023-01-07T08:08:34.563Z,53.27
2023-01-07T08:11:03.470Z,53.07
2023-01-07T08:13:31.708Z,52.56
2023-01-07T08:15:59.907Z,52.27
2023-01-07T08:18:28.068Z,50.77
2023-01-07T08:20:56.379Z,50.66
2023-01-07T08:27:42.409Z,45.87
2023-01-07T08:30:20.507Z,44.29
2023-01-07T08:37:05.576Z,43.08
2023-01-07T08:39:45.599Z,43.77
2023-01-07T08:50:52.240Z,39.39
2023-01-07T08:53:52.317Z,39.72
2023-01-07T09:00:40.680Z,37.42
2023-01-07T09:03:45.772Z,35.89
2023-01-07T09:10:32.703Z,34.54
2023-01-07T09:13:41.293Z,35.50
2023-01-07T09:20:27.466Z,34.19
2023-01-07T09:31:17.983Z,35.25
2023-01-07T09:42:51.958Z,36.65
2023-01-07T09:46:36.784Z,36.28
2023-01-07T09:57:41.264Z,36.29
2023-01-07T10:04:21.080Z,35.35
2023-01-07T10:27:10.319Z,28.63
2023-01-07T10:33:57.542Z,28.68
2023-01-07T10:37:05.895Z,29.68
2023-01-07T10:56:41.412Z,27.47
2023-01-07T11:08:01.836Z,33.06
2023-01-07T11:10:58.770Z,33.23
2023-01-07T11:26:19.349Z,36.83
2023-01-07T11:33:07.300Z,37.06
2023-01-07T11:36:12.995Z,36.98
2023-01-07T11:43:01.658Z,38.91
2023-01-07T11:46:20.054Z,39.42
2023-01-07T12:01:54.507Z,41.64
2023-01-07T12:05:21.264Z,41.03
2023-01-07T12:16:28.599Z,41.52
2023-01-07T12:36:05.391Z,36.85
2023-01-07T12:55:44.456Z,34.39
2023-01-07T13:15:27.368Z,38.69
2023-01-07T13:30:41.005Z,40.85
2023-01-07T13:46:20.763Z,43.10
2023-01-07T14:02:16.601Z,45.30
2023-01-07T14:31:00.817Z,49.08
2023-01-07T14:55:41.904Z,53.04
2023-01-07T15:06:40.696Z,54.24
2023-01-07T15:10:05.804Z,54.24
2023-01-07T15:22:51.427Z,56.38
2023-01-07T15:25:40.504Z,57.56
2023-01-07T15:28:20.327Z,57.99
2023-01-07T15:31:22.621Z,57.49
2023-01-07T15:33:57.460Z,59.34
2023-01-07T15:36:26.346Z,58.82
2023-01-07T15:38:58.546Z,59.95
2023-01-07T15:41:47.381Z,59.64
2023-01-07T15:44:24.831Z,61.20
2023-01-07T15:46:53.184Z,61.02
2023-01-07T15:49:23.111Z,61.98
2023-01-07T15:51:59.496Z,62.05
2023-01-07T15:54:27.721Z,61.84
2023-01-07T15:57:02.913Z,62.59
2023-01-07T15:59:34.743Z,62.38
2023-01-07T16:02:26.275Z,62.73
2023-01-07T16:05:01.774Z,63.55
2023-01-07T16:07:48.178Z,63.09
2023-01-07T16:10:26.103Z,62.80
2023-01-07T16:12:58.616Z,63.41
2023-01-07T16:15:30.127Z,63.79
2023-01-07T16:18:04.473Z,63.95
2023-01-07T16:20:36.727Z,64.58
2023-01-07T16:23:12.343Z,64.60
2023-01-07T16:25:49.062Z,64.79
2023-01-07T16:28:31.527Z,65.58
2023-01-07T16:31:09.397Z,65.81
2023-01-07T16:33:49.474Z,66.42
2023-01-07T16:36:23.761Z,66.57
2023-01-07T16:38:57.496Z,66.02
2023-01-07T16:41:28.384Z,66.42
2023-01-07T16:44:00.610Z,66.97
2023-01-07T16:46:53.123Z,66.93
2023-01-07T16:49:30.412Z,66.91
2023-01-07T16:52:12.782Z,67.12
2023-01-07T16:54:43.855Z,68.33
2023-01-07T16:57:12.057Z,67.91
2023-01-07T16:59:54.058Z,67.75
2023-01-07T17:02:48.959Z,67.16
2023-01-07T17:05:23.652Z,67.82
2023-01-07T17:08:05.984Z,69.08
2023-01-07T17:10:43.271Z,68.29
2023-01-07T17:13:33.287Z,70.01
2023-01-07T17:16:21.656Z,72.18
2023-01-07T17:18:55.215Z,69.98
2023-01-07T17:21:35.895Z,69.16
2023-01-07T17:24:30.357Z,69.41
2023-01-07T17:27:03.206Z,69.76
2023-01-07T17:37:21.983Z,69.04
2023-01-07T17:39:51.465Z,70.24
2023-01-07T17:42:48.318Z,69.89
2023-01-07T17:45:20.107Z,69.90
2023-01-07T17:47:53.479Z,70.12
2023-01-07T17:50:36.109Z,71.26
2023-01-07T17:53:05.527Z,70.87
2023-01-07T17:55:36.403Z,70.69
2023-01-07T17:58:39.940Z,70.89
2023-01-07T18:01:12.724Z,70.15
2023-01-07T18:03:47.955Z,70.24
2023-01-07T18:06:22.692Z,69.36
2023-01-07T18:09:04.344Z,70.00
2023-01-07T18:12:01.564Z,69.20
2023-01-07T18:14:32.837Z,70.27
2023-01-07T18:17:04.995Z,70.34
2023-01-07T18:19:35.229Z,70.24
2023-01-07T18:22:08.220Z,70.32
2023-01-07T18:24:37.677Z,70.37
2023-01-07T18:27:05.923Z,71.53
2023-01-07T18:29:37.906Z,71.51
2023-01-07T18:32:12.046Z,72.44
2023-01-07T18:34:42.075Z,72.25
2023-01-07T18:37:15.452Z,73.08
2023-01-07T18:39:55.837Z,72.51
2023-01-07T18:42:24.182Z,71.87
2023-01-07T18:44:52.572Z,71.17
2023-01-07T18:53:40.254Z,72.90
2023-01-07T18:56:32.062Z,73.11
2023-01-07T18:59:26.108Z,73.94
2023-01-07T19:02:00.933Z,73.69
2023-01-07T19:05:07.722Z,73.58
2023-01-07T19:07:45.113Z,74.50
2023-01-07T19:10:16.268Z,75.18
2023-01-07T19:20:47.004Z,74.14
2023-01-07T19:23:16.064Z,74.70
2023-01-07T19:25:44.425Z,73.96
2023-01-07T19:28:11.377Z,73.96
2023-01-07T19:30:38.480Z,74.78
2023-01-07T19:33:09.927Z,75.76
2023-01-07T19:35:36.896Z,75.74
2023-01-07T19:38:03.751Z,75.18
2023-01-07T19:40:37.222Z,74.75
2023-01-07T19:43:04.384Z,75.06
2023-01-07T19:45:31.587Z,74.10
2023-01-07T19:47:58.625Z,75.22
2023-01-07T19:50:25.677Z,76.14
2023-01-07T19:52:52.918Z,76.98
2023-01-07T19:55:22.780Z,76.43
2023-01-07T19:57:51.033Z,75.97
2023-01-07T20:00:18.898Z,75.60
2023-01-07T20:03:07.175Z,76.75
2023-01-07T20:05:35.699Z,76.95
2023-01-07T20:08:06.396Z,76.06
2023-01-07T20:10:34.362Z,76.84
2023-01-07T20:13:08.327Z,76.67
2023-01-07T20:15:37.377Z,76.62
2023-01-07T20:18:09.692Z,77.03
2023-01-07T20:20:36.628Z,76.59
2023-01-07T20:23:05.033Z,75.94
2023-01-07T20:25:32.566Z,75.46
2023-01-07T20:27:59.564Z,75.48
2023-01-07T20:30:26.713Z,75.67
2023-01-07T20:32:53.617Z,77.86
2023-01-07T20:35:22.817Z,77.55
2023-01-07T20:37:49.969Z,77.64
2023-01-07T20:40:21.545Z,77.31
2023-01-07T20:42:53.210Z,77.52
2023-01-07T20:45:20.104Z,76.93
2023-01-07T20:47:47.149Z,77.17
2023-01-07T20:50:14.824Z,77.63
2023-01-07T20:52:41.952Z,77.22
2023-01-07T20:55:12.050Z,78.04
2023-01-07T20:57:42.530Z,78.54
2023-01-07T21:00:13.612Z,78.49
2023-01-07T21:02:48.652Z,78.05
2023-01-07T21:05:19.909Z,77.91
2023-01-07T21:07:50.262Z,78.50
2023-01-07T21:10:21.552Z,79.02
2023-01-07T21:12:48.417Z,78.12
2023-01-07T21:15:22.327Z,79.36
2023-01-07T21:17:52.879Z,79.83
2023-01-07T21:20:22.849Z,79.82
2023-01-07T21:22:53.719Z,79.46
2023-01-07T21:25:20.986Z,79.57
2023-01-07T21:27:57.249Z,79.87
2023-01-07T21:30:24.239Z,80.09
2023-01-07T21:32:56.591Z,79.21
2023-01-07T21:35:23.675Z,80.09
2023-01-07T21:37:57.148Z,80.41
2023-01-07T21:40:28.256Z,80.23
2023-01-07T21:42:57.714Z,80.55
2023-01-07T21:45:27.665Z,80.51
2023-01-07T21:47:54.542Z,81.00
2023-01-07T21:50:42.309Z,80.50
2023-01-07T21:53:09.394Z,81.61
2023-01-07T21:55:39.204Z,81.60
2023-01-07T21:58:07.057Z,81.01
2023-01-07T22:00:40.272Z,82.07
2023-01-07T22:03:08.258Z,81.64
2023-01-07T22:05:38.360Z,81.34
2023-01-07T22:08:10.820Z,81.04
2023-01-07T22:10:38.240Z,81.65
2023-01-07T22:13:05.265Z,81.69
2023-01-07T22:15:32.295Z,81.24
2023-01-07T22:18:01.984Z,80.92
2023-01-07T22:20:29.101Z,81.42
2023-01-07T22:22:56.032Z,81.40
2023-01-07T22:25:24.079Z,81.42
2023-01-07T22:27:57.501Z,81.20
2023-01-07T22:30:31.133Z,80.95
2023-01-07T22:32:58.122Z,80.59
2023-01-07T22:35:26.240Z,81.70
2023-01-07T22:37:55.372Z,81.11
2023-01-07T22:40:22.430Z,81.19
2023-01-07T22:42:55.251Z,80.94
2023-01-07T22:45:50.021Z,80.08
2023-01-07T22:48:23.479Z,80.95
2023-01-07T22:50:55.436Z,80.75
2023-01-07T22:53:22.283Z,81.61
2023-01-07T22:55:49.486Z,81.43
2023-01-07T22:58:17.742Z,82.07
2023-01-07T23:00:50.255Z,81.50
2023-01-07T23:03:22.251Z,81.69
2023-01-07T23:05:50.818Z,81.33
2023-01-07T23:08:23.160Z,81.56
2023-01-07T23:10:50.558Z,80.97
2023-01-07T23:13:19.188Z,81.10
2023-01-07T23:15:47.689Z,81.61
2023-01-07T23:18:15.016Z,82.20
2023-01-07T23:20:43.158Z,82.44
2023-01-07T23:23:11.580Z,82.27
2023-01-07T23:25:46.306Z,82.05
2023-01-07T23:28:14.584Z,81.75
2023-01-07T23:30:41.667Z,81.44
2023-01-07T23:33:09.186Z,81.93
2023-01-07T23:35:39.597Z,83.24
2023-01-07T23:38:12.083Z,83.09
2023-01-07T23:40:39.983Z,83.19
2023-01-07T23:43:06.833Z,83.23
2023-01-07T23:45:33.859Z,83.65
2023-01-07T23:48:00.729Z,83.47
2023-01-07T23:50:28.220Z,83.06
2023-01-07T23:52:55.165Z,83.23
2023-01-07T23:55:24.414Z,83.25
2023-01-07T23:57:51.252Z,84.23
